createdAt,value
2022-08-11T00:01:32.285Z,0.98
2022-08-11T00:04:23.257Z,1.10
2022-08-11T00:07:13.644Z,1.15
2022-08-11T00:10:03.097Z,1.13
2022-08-11T00:12:57.289Z,1.37
2022-08-11T00:15:48.739Z,1.92
2022-08-11T00:18:41.553Z,1.00
2022-08-11T00:22:02.805Z,2.05
2022-08-11T00:24:54.933Z,1.95
2022-08-11T00:27:47.230Z,1.98
2022-08-11T00:30:42.189Z,0.88
2022-08-11T00:33:44.436Z,1.63
2022-08-11T00:36:43.908Z,1.42
2022-08-11T00:39:35.003Z,2.33
2022-08-11T00:42:45.842Z,1.17
2022-08-11T00:45:40.986Z,0.77
2022-08-11T00:48:37.443Z,1.70
2022-08-11T00:51:59.689Z,0.95
2022-08-11T00:55:17.567Z,1.52
2022-08-11T00:58:48.336Z,1.15
2022-08-11T01:01:57.265Z,1.00
2022-08-11T01:05:29.978Z,1.05
2022-08-11T01:09:08.320Z,1.10
2022-08-11T01:12:29.066Z,0.93
2022-08-11T01:16:00.571Z,0.73
2022-08-11T01:19:19.003Z,1.20
2022-08-11T01:22:30.466Z,0.65
2022-08-11T01:25:57.456Z,1.85
2022-08-11T01:29:23.253Z,0.68
2022-08-11T01:32:40.389Z,0.95
2022-08-11T01:36:08.259Z,1.40
2022-08-11T01:39:35.190Z,1.05
2022-08-11T01:43:23.553Z,1.17
2022-08-11T01:46:17.876Z,1.33
2022-08-11T01:50:06.693Z,0.88
2022-08-11T01:52:49.310Z,1.25
2022-08-11T01:55:44.894Z,0.90
2022-08-11T01:58:46.884Z,1.70
2022-08-11T02:01:46.392Z,1.45
2022-08-11T02:04:39.697Z,1.15
2022-08-11T02:07:35.395Z,1.70
2022-08-11T02:10:50.635Z,1.17
2022-08-11T02:13:48.831Z,1.02
2022-08-11T02:16:49.890Z,1.50
2022-08-11T02:20:08.059Z,1.23
2022-08-11T02:23:23.966Z,1.17
2022-08-11T02:26:32.359Z,1.63
2022-08-11T02:29:26.061Z,1.00
2022-08-11T02:32:39.969Z,0.95
2022-08-11T02:35:43.012Z,2.03
2022-08-11T02:38:43.528Z,0.60
2022-08-11T02:41:58.498Z,1.00
2022-08-11T02:44:58.787Z,1.33
2022-08-11T02:48:14.893Z,0.73
2022-08-11T02:51:22.278Z,2.42
2022-08-11T02:54:17.606Z,0.70
2022-08-11T02:57:14.345Z,0.75
2022-08-11T03:00:08.427Z,0.88
2022-08-11T03:03:16.472Z,1.23
2022-08-11T03:06:11.002Z,0.93
2022-08-11T03:09:07.696Z,0.77
2022-08-11T03:12:20.858Z,0.70
2022-08-11T03:15:35.310Z,1.92
2022-08-11T03:18:30.093Z,1.45
2022-08-11T03:21:24.404Z,0.77
2022-08-11T03:24:43.921Z,1.35
2022-08-11T03:27:44.051Z,1.25
2022-08-11T03:30:48.272Z,1.08
2022-08-11T03:34:06.672Z,0.80
2022-08-11T03:37:34.721Z,1.42
2022-08-11T03:41:50.458Z,1.00
2022-08-11T03:44:39.453Z,0.55
2022-08-11T03:47:52.622Z,1.50
2022-08-11T03:50:59.516Z,1.30
2022-08-11T03:54:11.284Z,1.25
2022-08-11T03:57:36.950Z,1.50
2022-08-11T04:01:06.982Z,1.27
2022-08-11T04:04:33.289Z,0.85
2022-08-11T04:07:46.298Z,0.73
2022-08-11T04:11:10.327Z,1.15
2022-08-11T04:14:51.030Z,1.00
2022-08-11T04:18:15.967Z,1.17
2022-08-11T04:21:22.678Z,1.40
2022-08-11T04:24:50.177Z,1.90
2022-08-11T04:28:28.474Z,2.08
2022-08-11T04:31:50.452Z,3.83
2022-08-11T04:34:59.531Z,3.67
2022-08-11T04:38:17.733Z,3.60
2022-08-11T04:42:04.857Z,5.10
2022-08-11T04:45:53.435Z,9.32
2022-08-11T04:49:34.046Z,8.25
2022-08-11T04:52:56.176Z,23.33
2022-08-11T04:56:44.511Z,11.25
2022-08-11T05:00:21.407Z,42.33
2022-08-11T05:03:42.697Z,23.65
2022-08-11T05:07:19.038Z,27.42
2022-08-11T05:10:24.370Z,15.50
2022-08-11T05:13:41.416Z,11.77
2022-08-11T05:16:51.558Z,26.55
2022-08-11T05:19:57.747Z,27.88
2022-08-11T05:23:08.860Z,17.83
2022-08-11T05:30:01.280Z,13.02
2022-08-11T05:33:18.156Z,16.58
2022-08-11T05:36:13.712Z,6.25
2022-08-11T05:39:33.662Z,3.75
2022-08-11T05:42:44.238Z,7.50
2022-08-11T05:46:02.503Z,5.32
2022-08-11T05:49:11.173Z,68.43
2022-08-11T05:52:18.577Z,31.42
2022-08-11T05:55:25.952Z,17.73
2022-08-11T05:58:15.426Z,18.85
2022-08-11T06:01:06.095Z,7.25
2022-08-11T06:04:14.208Z,8.13
2022-08-11T06:07:06.427Z,12.02
2022-08-11T06:09:55.625Z,8.10
2022-08-11T06:12:45.156Z,9.05
2022-08-11T06:15:35.385Z,5.43
2022-08-11T06:18:26.774Z,7.00
2022-08-11T06:21:16.301Z,4.00
2022-08-11T06:24:12.347Z,3.72
2022-08-11T06:27:12.330Z,2.42
2022-08-11T06:30:01.983Z,6.80
2022-08-11T06:32:55.627Z,5.03
2022-08-11T06:35:57.196Z,4.15
2022-08-11T06:38:59.292Z,2.17
2022-08-11T06:41:53.310Z,57.58
2022-08-11T06:44:44.342Z,26.20
2022-08-11T06:47:33.653Z,22.13
2022-08-11T06:50:41.615Z,9.75
2022-08-11T06:53:36.046Z,8.40
2022-08-11T06:56:44.231Z,12.20
2022-08-11T06:59:51.622Z,10.80
2022-08-11T07:02:49.666Z,11.05
2022-08-11T07:05:46.011Z,10.25
2022-08-11T07:09:16.526Z,9.90
2022-08-11T07:16:10.763Z,5.95
2022-08-11T07:19:07.682Z,24.55
2022-08-11T07:22:15.893Z,9.07
2022-08-11T07:25:30.043Z,8.65
2022-08-11T07:28:42.041Z,8.02
2022-08-11T07:31:42.224Z,10.02
2022-08-11T07:34:36.857Z,5.07
2022-08-11T07:37:27.417Z,4.35
2022-08-11T07:40:23.298Z,5.65
2022-08-11T07:43:14.366Z,4.18
2022-08-11T07:46:23.221Z,3.03
2022-08-11T07:49:30.399Z,9.95
2022-08-11T07:52:29.019Z,11.80
2022-08-11T07:55:19.881Z,6.22
2022-08-11T07:58:29.968Z,3.38
2022-08-11T08:01:39.611Z,6.00
2022-08-11T08:04:47.351Z,9.57
2022-08-11T08:07:56.015Z,15.48
2022-08-11T08:11:02.935Z,5.25
2022-08-11T08:14:09.705Z,14.70
2022-08-11T08:17:16.505Z,7.25
2022-08-11T08:20:07.500Z,5.18
2022-08-11T08:22:58.327Z,3.45
2022-08-11T08:25:49.097Z,7.82
2022-08-11T08:28:37.697Z,4.18
2022-08-11T08:31:26.268Z,7.88
2022-08-11T08:34:15.747Z,8.63
2022-08-11T08:37:15.819Z,9.88
2022-08-11T08:40:15.439Z,3.92
2022-08-11T08:43:10.672Z,4.70
2022-08-11T08:46:00.272Z,3.80
2022-08-11T08:48:52.166Z,4.95
2022-08-11T08:52:01.248Z,2.80
2022-08-11T08:54:57.135Z,4.80
2022-08-11T08:57:46.562Z,5.63
2022-08-11T09:00:45.643Z,3.95
2022-08-11T09:04:04.807Z,2.83
2022-08-11T09:06:50.054Z,2.95
2022-08-11T09:09:44.753Z,4.28
2022-08-11T09:12:38.411Z,3.40
2022-08-11T09:15:28.498Z,27.33
2022-08-11T09:18:19.751Z,9.98
2022-08-11T09:21:09.064Z,7.57
2022-08-11T09:24:25.782Z,5.00
2022-08-11T09:27:15.804Z,2.90
2022-08-11T09:30:06.696Z,3.47
2022-08-11T09:33:00.558Z,17.50
2022-08-11T09:35:52.339Z,10.65
2022-08-11T09:38:59.718Z,13.02
2022-08-11T09:42:01.131Z,7.43
2022-08-11T09:44:57.699Z,4.03
2022-08-11T09:47:47.076Z,3.28
2022-08-11T09:50:36.373Z,5.05
2022-08-11T09:53:35.728Z,7.85
2022-08-11T09:56:44.373Z,6.80
2022-08-11T09:59:33.323Z,5.07
2022-08-11T10:02:28.294Z,3.88
2022-08-11T10:05:38.036Z,8.52
2022-08-11T10:08:31.590Z,4.55
2022-08-11T10:11:24.601Z,3.28
2022-08-11T10:14:35.059Z,3.50
2022-08-11T10:17:24.762Z,5.80
2022-08-11T10:20:13.895Z,4.53
2022-08-11T10:23:21.518Z,3.85
2022-08-11T10:26:28.393Z,2.83
2022-08-11T10:29:44.382Z,3.42
2022-08-11T10:32:58.873Z,3.65
2022-08-11T10:35:49.644Z,3.42
2022-08-11T10:38:38.874Z,3.80
2022-08-11T10:42:06.467Z,3.55
2022-08-11T10:44:59.426Z,3.83
2022-08-11T10:47:49.584Z,2.75
2022-08-11T10:50:56.560Z,4.68
2022-08-11T10:54:05.762Z,3.45
2022-08-11T10:57:14.437Z,4.10
2022-08-11T11:00:04.691Z,3.58
2022-08-11T11:03:22.038Z,5.03
2022-08-11T11:06:13.289Z,19.50
2022-08-11T11:09:20.851Z,174.65
2022-08-11T11:12:30.238Z,73.88
2022-08-11T11:15:38.276Z,47.50
2022-08-11T11:18:29.829Z,37.38
2022-08-11T11:24:17.734Z,20.33
2022-08-11T11:27:16.080Z,9.52
2022-08-11T11:30:08.434Z,4.03
2022-08-11T11:33:06.224Z,4.70
2022-08-11T11:36:08.918Z,3.58
2022-08-11T11:38:58.535Z,6.43
2022-08-11T11:41:47.525Z,2.90
2022-08-11T11:44:39.364Z,5.32
2022-08-11T11:47:28.666Z,31.45
2022-08-11T11:50:18.259Z,14.60
2022-08-11T11:53:09.420Z,16.08
2022-08-11T11:55:59.299Z,9.63
2022-08-11T11:59:07.107Z,9.05
2022-08-11T12:02:11.945Z,4.47
2022-08-11T12:05:02.747Z,4.38
2022-08-11T12:08:12.871Z,8.45
2022-08-11T12:14:10.926Z,6.25
2022-08-11T12:17:01.503Z,6.85
2022-08-11T12:19:51.067Z,7.80
2022-08-11T12:22:58.791Z,5.13
2022-08-11T12:26:25.876Z,5.03
2022-08-11T12:29:14.447Z,5.40
2022-08-11T12:32:09.456Z,8.25
2022-08-11T12:34:58.743Z,8.00
2022-08-11T12:37:51.965Z,12.57
2022-08-11T12:44:36.632Z,7.22
2022-08-11T12:48:09.289Z,5.63
2022-08-11T12:51:17.038Z,8.07
2022-08-11T12:54:12.816Z,10.02
2022-08-11T12:57:24.026Z,4.03
2022-08-11T13:00:44.305Z,10.20
2022-08-11T13:03:56.583Z,8.00
2022-08-11T13:06:46.026Z,8.27
2022-08-11T13:09:34.575Z,11.10
2022-08-11T13:28:21.472Z,10.13
2022-08-11T13:31:15.214Z,15.13
2022-08-11T13:34:08.585Z,10.93
2022-08-11T14:44:39.047Z,9.52
2022-08-11T14:47:29.002Z,13.68
2022-08-11T14:50:23.294Z,13.27
2022-08-11T14:53:18.807Z,7.82
2022-08-11T14:56:25.506Z,4.63
2022-08-11T14:59:15.891Z,6.07
2022-08-11T15:02:23.385Z,7.83
2022-08-11T15:05:12.374Z,4.78
2022-08-11T15:08:01.315Z,6.28
2022-08-11T15:10:51.004Z,10.32
2022-08-11T15:13:40.658Z,5.65
2022-08-11T15:16:49.775Z,5.78
2022-08-11T15:20:03.372Z,5.13
2022-08-11T15:23:24.546Z,7.25
2022-08-11T15:26:17.227Z,6.10
2022-08-11T15:29:23.695Z,7.45
2022-08-11T15:32:32.688Z,6.90
2022-08-11T15:35:39.873Z,5.22
2022-08-11T15:38:36.253Z,5.97
2022-08-11T15:41:54.627Z,4.38
2022-08-11T15:45:10.242Z,35.65
2022-08-11T15:48:06.076Z,67.90
2022-08-11T15:50:58.530Z,164.80
2022-08-11T15:53:56.732Z,92.55
2022-08-11T15:56:48.808Z,77.60
2022-08-11T16:00:00.364Z,56.30
2022-08-11T16:03:12.487Z,36.65
2022-08-11T16:06:06.220Z,20.83
2022-08-11T16:08:56.899Z,19.45
2022-08-11T16:11:47.771Z,10.77
2022-08-11T16:14:59.448Z,10.73
2022-08-11T16:17:52.947Z,4.40
2022-08-11T16:20:41.707Z,4.47
2022-08-11T16:23:31.876Z,29.20
2022-08-11T16:27:09.026Z,144.57
2022-08-11T16:29:33.965Z,84.75
2022-08-11T16:32:24.560Z,50.63
2022-08-11T16:35:35.052Z,23.70
2022-08-11T16:38:36.819Z,16.40
2022-08-11T16:41:52.349Z,15.90
2022-08-11T16:44:58.640Z,30.45
2022-08-11T16:48:02.774Z,16.58
2022-08-11T16:51:00.959Z,6.75
2022-08-11T16:54:05.212Z,7.07
2022-08-11T16:56:57.439Z,6.63
2022-08-11T16:59:45.682Z,8.80
2022-08-11T17:02:54.453Z,7.20
2022-08-11T17:06:07.566Z,10.75
2022-08-11T17:09:13.600Z,6.55
2022-08-11T17:12:25.051Z,8.65
2022-08-11T17:15:35.970Z,11.40
2022-08-11T17:18:44.842Z,16.00
2022-08-11T17:21:58.563Z,7.60
2022-08-11T17:24:47.964Z,7.13
2022-08-11T17:27:39.992Z,12.85
2022-08-11T17:30:49.944Z,9.13
2022-08-11T17:33:56.652Z,11.68
2022-08-11T17:36:46.299Z,7.88
2022-08-11T17:39:35.860Z,6.68
2022-08-11T17:42:45.055Z,9.80
2022-08-11T17:45:52.586Z,5.40
2022-08-11T17:48:47.302Z,4.43
2022-08-11T17:51:55.991Z,7.05
2022-08-11T17:55:02.850Z,8.88
2022-08-11T17:58:14.255Z,6.20
2022-08-11T18:01:09.429Z,4.30
2022-08-11T18:03:58.856Z,5.40
2022-08-11T18:06:49.629Z,3.55
2022-08-11T18:09:55.741Z,5.32
2022-08-11T18:13:04.170Z,6.38
2022-08-11T18:16:10.239Z,8.35
2022-08-11T18:19:18.452Z,6.97
2022-08-11T18:22:27.929Z,4.45
2022-08-11T18:25:35.999Z,5.55
2022-08-11T18:28:45.323Z,4.25
2022-08-11T18:31:55.578Z,4.32
2022-08-11T18:35:03.401Z,3.40
2022-08-11T18:38:11.232Z,5.07
2022-08-11T18:41:18.069Z,3.53
2022-08-11T18:44:29.037Z,4.10
2022-08-11T18:47:37.457Z,3.80
2022-08-11T18:50:53.558Z,3.97
2022-08-11T18:54:18.808Z,4.32
2022-08-11T18:57:26.738Z,4.05
2022-08-11T19:00:33.395Z,4.10
2022-08-11T19:03:48.359Z,3.58
2022-08-11T19:06:56.850Z,3.80
2022-08-11T19:10:05.158Z,4.93
2022-08-11T19:13:15.565Z,3.63
2022-08-11T19:16:23.830Z,4.82
2022-08-11T19:19:32.423Z,4.72
2022-08-11T19:22:41.219Z,3.55
2022-08-11T19:25:49.323Z,3.55
2022-08-11T19:28:58.671Z,2.95
2022-08-11T19:32:05.428Z,4.35
2022-08-11T19:35:12.464Z,2.47
2022-08-11T19:38:21.136Z,4.15
2022-08-11T19:41:52.115Z,3.17
2022-08-11T19:44:54.767Z,3.05
2022-08-11T19:48:30.198Z,4.03
2022-08-11T19:51:30.324Z,3.47
2022-08-11T19:54:39.244Z,4.35
2022-08-11T19:57:45.500Z,2.70
2022-08-11T20:00:52.577Z,3.63
2022-08-11T20:03:58.725Z,2.72
2022-08-11T20:07:04.869Z,4.30
2022-08-11T20:10:13.000Z,4.38
2022-08-11T20:13:21.440Z,2.40
2022-08-11T20:16:29.585Z,2.50
2022-08-11T20:19:55.691Z,3.15
2022-08-11T20:23:04.035Z,3.78
2022-08-11T20:26:31.201Z,3.28
2022-08-11T20:29:44.657Z,2.25
2022-08-11T20:32:54.540Z,2.65
2022-08-11T20:36:00.496Z,2.22
2022-08-11T20:39:09.283Z,2.35
2022-08-11T20:42:17.211Z,2.30
2022-08-11T20:45:27.314Z,2.40
2022-08-11T20:48:33.832Z,2.38
2022-08-11T20:51:40.627Z,4.38
2022-08-11T20:54:46.776Z,2.78
2022-08-11T20:58:03.949Z,3.33
2022-08-11T21:01:20.571Z,3.33
2022-08-11T21:04:54.325Z,3.00
2022-08-11T21:08:05.296Z,2.58
2022-08-11T21:11:12.926Z,2.72
2022-08-11T21:14:23.427Z,4.75
2022-08-11T21:17:33.653Z,2.10
2022-08-11T21:20:41.502Z,3.45
2022-08-11T21:23:50.780Z,2.70
2022-08-11T21:27:03.462Z,2.83
2022-08-11T21:30:12.561Z,3.10
2022-08-11T21:33:18.641Z,2.92
2022-08-11T21:36:27.644Z,2.30
2022-08-11T21:39:37.819Z,2.47
2022-08-11T21:42:46.790Z,2.00
2022-08-11T21:45:57.582Z,2.75
2022-08-11T21:52:10.185Z,1.60
2022-08-11T21:55:17.924Z,2.33
2022-08-11T21:58:24.622Z,1.95
2022-08-11T22:01:32.483Z,3.20
2022-08-11T22:04:40.830Z,1.95
2022-08-11T22:07:48.054Z,2.45
2022-08-11T22:10:53.717Z,2.10
2022-08-11T22:14:06.449Z,2.35
2022-08-11T22:17:15.366Z,2.10
2022-08-11T22:20:23.441Z,3.13
2022-08-11T22:23:35.238Z,3.10
2022-08-11T22:26:47.396Z,1.98
2022-08-11T22:29:53.807Z,2.80
2022-08-11T22:33:02.395Z,2.00
2022-08-11T22:36:10.061Z,2.38
2022-08-11T22:39:19.112Z,2.10
2022-08-11T22:42:33.485Z,2.85
2022-08-11T22:45:41.046Z,2.05
2022-08-11T22:48:49.657Z,2.72
2022-08-11T22:51:57.683Z,2.40
2022-08-11T22:55:04.646Z,1.80
2022-08-11T22:58:12.447Z,1.90
2022-08-11T23:01:18.183Z,2.20
2022-08-11T23:04:27.125Z,3.67
2022-08-11T23:07:50.504Z,2.88
2022-08-11T23:10:59.266Z,2.10
2022-08-11T23:14:05.509Z,2.30
2022-08-11T23:17:12.864Z,1.63
2022-08-11T23:20:27.126Z,2.22
2022-08-11T23:23:35.364Z,3.03
2022-08-11T23:26:43.088Z,1.83
2022-08-11T23:29:53.930Z,1.90
2022-08-11T23:36:11.138Z,1.90
2022-08-11T23:39:37.202Z,1.83
2022-08-11T23:42:43.854Z,3.15
2022-08-11T23:45:52.123Z,2.63
2022-08-11T23:48:58.970Z,2.33
2022-08-11T23:52:08.369Z,3.05
2022-08-11T23:55:14.923Z,2.03
2022-08-11T23:58:20.828Z,2.15
